Time;durP1;ratioP1;P1;durP2;ratioP2;P2;SDS_P1;SDS_P2;PMS_P1;PMS_P2;Temp;Humidity;BMP_temperature;BMP_pressure;BME280_temperature;BME280_humidity;BME280_pressure;Samples;Min_cycle;Max_cycle;Signal;HPM_P1;HPM_P2
2022/08/26 00:00:14;;;;;;;25.67;15.18;;;23.10;80.90;;;;;;4988224;28;20450;-73
2022/08/26 00:02:40;;;;;;;26.40;18.98;;;23.00;82.20;;;;;;4978811;28;20029;-74
2022/08/26 00:05:05;;;;;;;14.55;10.27;;;23.10;81.90;;;;;;4988728;28;20027;-74
2022/08/26 00:07:31;;;;;;;18.98;12.90;;;23.10;79.30;;;;;;4977029;28;20027;-74
2022/08/26 00:09:57;;;;;;;23.67;16.60;;;23.10;76.70;;;;;;4990405;28;20034;-73
2022/08/26 00:12:23;;;;;;;24.63;17.00;;;23.10;79.30;;;;;;4983622;28;20023;-74
2022/08/26 00:14:48;;;;;;;18.42;14.32;;;23.00;81.80;;;;;;4970482;28;20410;-74
2022/08/26 00:17:14;;;;;;;17.40;14.25;;;23.00;80.70;;;;;;4974109;28;20053;-74
2022/08/26 00:19:40;;;;;;;15.45;11.13;;;22.90;81.90;;;;;;4989420;28;20022;-74
2022/08/26 00:22:05;;;;;;;14.35;10.20;;;22.90;80.60;;;;;;4981701;28;20030;-74
2022/08/26 00:24:31;;;;;;;16.13;10.77;;;22.90;81.30;;;;;;4973043;28;20046;-74
2022/08/26 00:26:57;;;;;;;18.60;12.52;;;22.90;82.00;;;;;;4956901;28;20023;-73
2022/08/26 00:29:22;;;;;;;15.70;9.07;;;22.90;82.40;;;;;;4984274;28;20066;-74
2022/08/26 00:31:48;;;;;;;17.73;10.43;;;22.90;81.50;;;;;;4984575;28;20188;-73
2022/08/26 00:34:15;;;;;;;19.63;9.80;;;22.90;82.10;;;;;;4972319;28;20019;-74
2022/08/26 00:36:41;;;;;;;17.48;11.43;;;22.80;82.00;;;;;;4982794;28;20081;-73
2022/08/26 00:39:08;;;;;;;13.52;7.90;;;22.80;83.20;;;;;;4978076;28;20031;-75
2022/08/26 00:41:37;;;;;;;12.50;6.43;;;22.80;81.60;;;;;;4971205;28;20054;-74
2022/08/26 00:44:03;;;;;;;18.00;11.25;;;22.90;78.90;;;;;;4986406;28;20026;-74
2022/08/26 00:46:32;;;;;;;15.15;8.07;;;22.90;80.00;;;;;;4977381;28;20054;-74
2022/08/26 00:49:08;;;;;;;12.80;7.03;;;23.00;81.30;;;;;;4990327;28;20122;-74
2022/08/26 00:51:38;;;;;;;15.63;7.97;;;23.00;77.30;;;;;;4976468;28;20461;-74
2022/08/26 00:54:08;;;;;;;12.93;7.57;;;23.00;80.00;;;;;;4986988;28;20019;-74
2022/08/26 00:56:43;;;;;;;13.48;8.77;;;23.00;80.40;;;;;;4979905;28;20018;-74
2022/08/26 00:59:11;;;;;;;16.65;8.38;;;23.00;81.90;;;;;;4987614;28;20026;-74
2022/08/26 01:01:40;;;;;;;11.07;7.55;;;23.00;82.20;;;;;;4977430;28;20029;-74
2022/08/26 01:04:06;;;;;;;18.48;10.13;;;22.90;82.70;;;;;;4983686;28;20095;-73
2022/08/26 01:06:32;;;;;;;9.68;6.57;;;22.80;83.10;;;;;;4996519;28;20019;-73
2022/08/26 01:08:58;;;;;;;19.95;10.48;;;22.80;81.60;;;;;;4992309;28;20101;-73
2022/08/26 01:11:24;;;;;;;15.80;9.73;;;22.80;83.60;;;;;;4976529;28;20070;-74
2022/08/26 01:13:54;;;;;;;11.77;6.75;;;22.70;83.70;;;;;;4978258;28;20018;-74
2022/08/26 01:16:21;;;;;;;12.50;7.53;;;22.80;82.20;;;;;;4991632;28;20038;-74
2022/08/26 01:18:48;;;;;;;15.43;7.55;;;22.70;82.40;;;;;;4969257;28;20030;-73
2022/08/26 01:21:37;;;;;;;15.45;7.20;;;22.70;83.00;;;;;;4980940;28;20030;-73
2022/08/26 01:24:03;;;;;;;14.77;7.40;;;22.70;83.20;;;;;;4980435;28;20058;-73
2022/08/26 01:26:40;;;;;;;12.98;6.63;;;22.70;82.80;;;;;;4991986;28;20026;-74
2022/08/26 01:29:11;;;;;;;13.13;8.02;;;22.70;83.60;;;;;;4987395;28;20093;-73
2022/08/26 01:31:45;;;;;;;16.38;6.90;;;22.70;83.70;;;;;;4990770;28;20030;-73
2022/08/26 01:34:18;;;;;;;9.68;6.72;;;22.70;83.80;;;;;;4983401;28;20019;-73
2022/08/26 01:36:45;;;;;;;12.13;6.85;;;22.70;84.10;;;;;;4976170;28;20023;-72
2022/08/26 01:39:10;;;;;;;11.90;6.15;;;22.60;84.00;;;;;;4960604;28;20070;-72
2022/08/26 01:41:38;;;;;;;13.27;7.53;;;22.60;84.00;;;;;;4970878;28;20457;-73
2022/08/26 01:44:06;;;;;;;11.27;5.20;;;22.50;84.50;;;;;;4990788;28;20026;-73
2022/08/26 01:46:32;;;;;;;10.65;6.00;;;22.50;84.30;;;;;;4995494;28;20054;-73
2022/08/26 01:49:03;;;;;;;14.63;5.70;;;22.50;83.40;;;;;;4960406;28;20039;-73
2022/08/26 01:51:30;;;;;;;8.65;4.45;;;22.60;81.60;;;;;;4967670;28;20029;-73
2022/08/26 01:53:57;;;;;;;10.68;6.20;;;22.50;83.70;;;;;;4990778;28;20101;-73
2022/08/26 01:56:23;;;;;;;13.80;5.45;;;22.50;83.60;;;;;;4984221;28;20031;-73
2022/08/26 01:58:56;;;;;;;10.45;4.90;;;22.50;84.30;;;;;;4972889;28;20029;-73
2022/08/26 02:01:24;;;;;;;10.25;5.20;;;22.50;84.30;;;;;;4987112;28;20038;-73
2022/08/26 02:04:22;;;;;;;10.13;5.60;;;22.50;83.70;;;;;;4991445;28;20030;-73
2022/08/26 02:06:49;;;;;;;10.55;5.43;;;22.50;84.20;;;;;;4990513;28;20049;-73
2022/08/26 02:09:16;;;;;;;9.68;4.13;;;22.50;83.80;;;;;;4991001;28;20362;-74
2022/08/26 02:11:42;;;;;;;8.15;3.70;;;22.50;83.60;;;;;;4972476;28;20030;-73
2022/08/26 02:14:12;;;;;;;7.43;3.47;;;22.50;82.80;;;;;;4972814;28;20737;-73
2022/08/26 02:16:41;;;;;;;11.00;4.60;;;22.50;82.30;;;;;;4967044;28;20023;-73
2022/08/26 02:19:28;;;;;;;9.40;3.40;;;22.50;83.50;;;;;;4972130;28;20027;-73
2022/08/26 02:21:54;;;;;;;7.22;3.25;;;22.40;83.70;;;;;;4969330;28;20858;-73
2022/08/26 02:24:28;;;;;;;9.27;3.90;;;22.40;83.60;;;;;;4974568;28;20416;-73
2022/08/26 02:26:57;;;;;;;7.63;2.83;;;22.40;84.20;;;;;;4979302;28;20026;-73
2022/08/26 02:29:30;;;;;;;13.13;4.22;;;22.40;82.10;;;;;;4991711;28;20042;-73
2022/08/26 02:31:56;;;;;;;9.07;3.25;;;22.50;82.70;;;;;;4961471;28;20025;-73
2022/08/26 02:34:31;;;;;;;14.80;4.05;;;22.40;83.20;;;;;;4981785;28;20027;-73
2022/08/26 02:36:59;;;;;;;7.22;3.35;;;22.50;83.30;;;;;;4987477;28;20022;-73
2022/08/26 02:39:26;;;;;;;10.82;3.65;;;22.50;83.20;;;;;;4972341;28;20030;-73
2022/08/26 02:41:51;;;;;;;8.30;3.53;;;22.50;82.60;;;;;;4981442;28;20085;-73
2022/08/26 02:44:18;;;;;;;8.63;3.33;;;22.50;83.60;;;;;;4973543;28;20030;-72
2022/08/26 02:46:44;;;;;;;10.25;3.65;;;22.50;80.00;;;;;;4985290;28;20062;-72
2022/08/26 02:49:10;;;;;;;8.43;2.80;;;22.50;82.80;;;;;;4978885;28;20145;-74
2022/08/26 02:51:36;;;;;;;7.22;2.85;;;22.50;82.00;;;;;;4987704;28;20113;-73
2022/08/26 02:54:02;;;;;;;11.32;2.60;;;22.50;80.60;;;;;;4961435;28;20023;-73
2022/08/26 02:56:28;;;;;;;8.52;2.83;;;22.40;82.60;;;;;;4973520;28;20031;-72
2022/08/26 02:58:54;;;;;;;7.45;3.05;;;22.40;84.30;;;;;;4991185;28;20030;-73
2022/08/26 03:01:28;;;;;;;7.20;3.08;;;22.30;84.50;;;;;;4972155;28;20042;-73
2022/08/26 03:03:56;;;;;;;8.15;2.15;;;22.30;83.50;;;;;;4960239;28;20019;-73
2022/08/26 03:06:23;;;;;;;6.78;2.60;;;22.20;84.80;;;;;;4956208;28;20054;-74
2022/08/26 03:08:48;;;;;;;6.50;2.75;;;22.30;79.90;;;;;;4979786;28;20034;-73
2022/08/26 03:11:14;;;;;;;8.43;3.10;;;22.20;79.50;;;;;;4969894;28;20033;-74
2022/08/26 03:13:40;;;;;;;6.13;2.78;;;22.20;83.80;;;;;;4982915;28;20033;-73
2022/08/26 03:16:06;;;;;;;6.80;2.15;;;22.30;82.90;;;;;;4954499;28;20019;-73
2022/08/26 03:18:33;;;;;;;8.23;2.22;;;22.20;81.00;;;;;;4974363;28;20038;-74
2022/08/26 03:21:11;;;;;;;12.65;2.95;;;22.30;79.50;;;;;;4973904;28;20110;-74
2022/08/26 03:23:38;;;;;;;10.52;3.00;;;22.30;81.90;;;;;;4983192;28;20536;-74
2022/08/26 03:26:05;;;;;;;10.73;3.08;;;22.20;85.00;;;;;;4971299;28;20105;-73
2022/08/26 03:28:31;;;;;;;8.57;3.08;;;22.20;85.40;;;;;;4975264;28;20058;-74
2022/08/26 03:30:57;;;;;;;6.32;3.03;;;22.30;84.90;;;;;;4989063;28;20559;-73
2022/08/26 03:33:23;;;;;;;9.00;2.63;;;22.20;85.00;;;;;;4987098;28;20033;-73
2022/08/26 03:35:50;;;;;;;9.38;2.75;;;22.20;85.10;;;;;;4981190;28;20084;-73
2022/08/26 03:38:20;;;;;;;6.47;2.28;;;22.20;85.70;;;;;;4960984;28;20025;-73
2022/08/26 03:40:47;;;;;;;12.25;2.88;;;22.10;85.70;;;;;;4970994;28;20515;-73
2022/08/26 03:43:15;;;;;;;9.38;3.08;;;22.20;86.10;;;;;;4975317;28;20072;-74
2022/08/26 03:45:42;;;;;;;11.70;2.85;;;22.10;86.30;;;;;;4978698;28;20023;-73
2022/08/26 03:48:08;;;;;;;10.88;3.30;;;22.10;86.50;;;;;;4973032;28;20073;-74
2022/08/26 03:50:35;;;;;;;8.73;2.65;;;22.10;86.20;;;;;;4980320;28;20050;-73
2022/08/26 03:53:01;;;;;;;8.45;2.70;;;22.20;84.80;;;;;;4974004;28;20030;-73
2022/08/26 03:55:32;;;;;;;9.20;2.67;;;22.10;86.10;;;;;;4972128;28;20041;-74
2022/08/26 03:57:58;;;;;;;9.90;2.63;;;22.10;86.10;;;;;;4988555;28;20033;-74
2022/08/26 04:00:24;;;;;;;10.00;2.50;;;22.20;86.00;;;;;;4978993;28;20085;-74
2022/08/26 04:02:49;;;;;;;10.73;2.35;;;22.20;86.00;;;;;;4989911;28;20026;-74
2022/08/26 04:05:18;;;;;;;8.25;2.40;;;22.10;85.50;;;;;;4977666;28;20026;-74
2022/08/26 04:07:45;;;;;;;7.88;2.08;;;22.20;84.50;;;;;;4989750;28;20060;-74
2022/08/26 04:10:16;;;;;;;7.90;2.45;;;22.20;85.40;;;;;;4984739;28;20033;-74
2022/08/26 04:12:42;;;;;;;9.57;1.90;;;22.20;84.40;;;;;;4970798;28;20532;-74
2022/08/26 04:15:11;;;;;;;9.02;2.10;;;22.20;84.70;;;;;;4984569;28;20030;-74
2022/08/26 04:17:37;;;;;;;7.38;1.85;;;22.20;83.50;;;;;;4970088;28;20031;-74
2022/08/26 04:20:04;;;;;;;4.93;1.67;;;22.30;84.70;;;;;;4973662;28;20051;-73
2022/08/26 04:22:30;;;;;;;7.53;1.65;;;22.30;84.30;;;;;;4972986;28;20026;-74
2022/08/26 04:24:56;;;;;;;10.82;2.33;;;22.30;84.60;;;;;;4965533;28;20028;-74
2022/08/26 04:27:21;;;;;;;6.43;2.50;;;22.20;85.40;;;;;;4972200;28;20062;-74
2022/08/26 04:29:47;;;;;;;6.90;1.58;;;22.20;84.90;;;;;;4975205;28;20038;-74
2022/08/26 04:32:14;;;;;;;10.20;2.08;;;22.30;85.10;;;;;;4977298;28;20027;-74
2022/08/26 04:34:40;;;;;;;7.45;1.92;;;22.30;84.40;;;;;;4954081;28;20015;-73
2022/08/26 04:37:06;;;;;;;5.10;1.80;;;22.30;84.10;;;;;;4962756;28;20109;-75
2022/08/26 04:39:32;;;;;;;5.05;1.40;;;22.30;80.90;;;;;;4987074;28;20019;-74
2022/08/26 04:42:00;;;;;;;5.13;1.42;;;22.30;81.60;;;;;;4960812;28;20023;-74
2022/08/26 04:44:28;;;;;;;5.60;1.42;;;22.20;82.70;;;;;;4987802;28;20085;-74
2022/08/26 04:46:55;;;;;;;7.97;1.27;;;22.30;81.40;;;;;;4968508;28;20074;-74
2022/08/26 04:49:20;;;;;;;3.83;1.20;;;22.40;81.80;;;;;;4968175;28;20097;-73
2022/08/26 04:51:47;;;;;;;5.88;2.05;;;22.50;81.70;;;;;;4974308;28;20031;-74
2022/08/26 04:54:14;;;;;;;6.32;1.63;;;22.60;78.70;;;;;;4972378;28;20033;-75
2022/08/26 04:56:42;;;;;;;6.30;1.58;;;22.70;76.70;;;;;;4980677;28;20459;-74
2022/08/26 04:59:11;;;;;;;5.82;1.65;;;22.80;75.80;;;;;;4968423;28;20026;-74
2022/08/26 05:01:37;;;;;;;7.00;1.40;;;22.80;75.80;;;;;;4956044;28;20053;-74
2022/08/26 05:04:04;;;;;;;4.95;1.48;;;22.80;78.90;;;;;;4953649;28;20461;-74
2022/08/26 05:06:29;;;;;;;7.65;1.45;;;22.80;79.50;;;;;;4973636;28;20022;-74
2022/08/26 05:08:55;;;;;;;7.50;1.35;;;22.80;77.60;;;;;;4985648;28;20053;-74
2022/08/26 05:11:21;;;;;;;6.13;1.35;;;22.80;78.20;;;;;;4983334;28;20019;-74
2022/08/26 05:13:47;;;;;;;7.78;1.75;;;22.80;76.20;;;;;;4969805;28;20027;-74
2022/08/26 05:16:14;;;;;;;9.38;2.40;;;22.90;72.70;;;;;;4972855;28;20027;-75
2022/08/26 05:18:42;;;;;;;7.60;1.90;;;22.90;73.40;;;;;;4962286;28;20029;-74
2022/08/26 05:21:23;;;;;;;6.63;1.60;;;22.90;79.00;;;;;;4985674;28;20122;-73
2022/08/26 05:23:56;;;;;;;7.28;1.38;;;22.90;79.10;;;;;;4965974;28;20026;-74
2022/08/26 05:26:24;;;;;;;5.32;1.40;;;22.90;80.30;;;;;;4978830;28;20027;-75
2022/08/26 05:28:51;;;;;;;6.15;1.38;;;22.90;78.60;;;;;;4979760;28;20568;-74
2022/08/26 05:31:20;;;;;;;7.03;2.08;;;22.90;76.60;;;;;;4972881;28;20050;-74
2022/08/26 05:33:46;;;;;;;9.63;2.03;;;22.90;80.00;;;;;;4980607;28;20014;-74
2022/08/26 05:36:17;;;;;;;8.63;1.40;;;22.90;80.90;;;;;;4972352;28;20037;-75
2022/08/26 05:38:44;;;;;;;7.50;1.70;;;22.90;80.90;;;;;;4979980;28;20022;-74
2022/08/26 05:41:28;;;;;;;10.27;1.42;;;22.90;81.20;;;;;;4954693;28;20035;-74
2022/08/26 05:43:59;;;;;;;5.10;1.10;;;22.90;80.30;;;;;;4988005;28;20019;-74
2022/08/26 05:46:26;;;;;;;6.00;1.50;;;22.90;80.80;;;;;;4972776;28;20045;-76
2022/08/26 05:48:53;;;;;;;6.70;1.65;;;22.90;80.80;;;;;;4982690;28;20049;-75
2022/08/26 05:51:19;;;;;;;7.05;1.48;;;22.90;80.40;;;;;;4971260;28;20037;-73
2022/08/26 05:53:45;;;;;;;6.75;1.58;;;22.90;80.20;;;;;;4982790;28;20476;-73
2022/08/26 05:56:11;;;;;;;9.13;1.83;;;22.90;80.70;;;;;;4984205;28;20037;-73
2022/08/26 05:58:39;;;;;;;9.00;1.50;;;22.90;80.80;;;;;;4987974;28;20553;-74
2022/08/26 06:01:13;;;;;;;7.60;1.42;;;22.90;79.80;;;;;;4972802;28;20109;-74
2022/08/26 06:03:41;;;;;;;5.57;1.55;;;23.00;80.70;;;;;;4982371;28;20473;-74
2022/08/26 06:06:09;;;;;;;9.00;1.83;;;23.00;80.60;;;;;;4974175;28;20023;-74
2022/08/26 06:08:36;;;;;;;7.03;1.50;;;23.00;80.80;;;;;;4980969;28;20038;-73
2022/08/26 06:11:04;;;;;;;9.20;2.53;;;23.00;80.10;;;;;;4992329;28;20467;-74
2022/08/26 06:13:31;;;;;;;11.43;2.05;;;23.00;80.40;;;;;;4965985;28;20027;-74
2022/08/26 06:15:58;;;;;;;7.43;2.15;;;23.10;80.30;;;;;;4986313;28;20022;-74
2022/08/26 06:18:33;;;;;;;12.20;2.30;;;23.10;79.90;;;;;;4979712;28;20027;-74
2022/08/26 06:21:10;;;;;;;7.47;1.63;;;23.10;79.90;;;;;;4961815;28;20027;-74
2022/08/26 06:26:20;;;;;;;6.82;1.50;;;23.20;79.70;;;;;;4977863;28;20129;-74
2022/08/26 06:28:45;;;;;;;5.70;1.45;;;23.20;79.80;;;;;;4976337;28;20078;-74
2022/08/26 06:31:13;;;;;;;7.63;1.70;;;23.20;78.30;;;;;;4984408;28;20034;-75
2022/08/26 06:33:38;;;;;;;10.07;1.77;;;23.20;78.70;;;;;;4966442;28;20030;-74
2022/08/26 06:36:04;;;;;;;5.40;1.35;;;23.20;77.10;;;;;;4982072;28;20405;-75
2022/08/26 06:38:30;;;;;;;9.98;1.92;;;23.30;74.10;;;;;;4989456;28;20115;-74
2022/08/26 06:40:56;;;;;;;7.47;1.83;;;23.30;76.20;;;;;;4988323;28;20030;-75
2022/08/26 06:43:25;;;;;;;9.55;2.22;;;23.20;78.40;;;;;;4991114;28;20045;-74
2022/08/26 06:45:58;;;;;;;4.97;1.30;;;23.30;78.80;;;;;;4975972;28;20031;-75
2022/08/26 06:48:23;;;;;;;14.48;1.83;;;23.30;77.40;;;;;;4972795;28;20057;-75
2022/08/26 06:50:49;;;;;;;9.77;1.45;;;23.40;77.60;;;;;;4968255;28;20018;-75
2022/08/26 06:53:15;;;;;;;13.82;1.73;;;23.40;76.10;;;;;;4971696;28;20034;-74
2022/08/26 06:55:44;;;;;;;5.50;1.33;;;23.40;76.00;;;;;;4975447;28;20034;-76
2022/08/26 06:58:10;;;;;;;4.30;1.08;;;23.40;74.10;;;;;;4973849;28;21003;-74
2022/08/26 07:00:37;;;;;;;9.70;2.10;;;23.50;72.50;;;;;;4978382;28;20034;-72
2022/08/26 07:03:05;;;;;;;4.28;1.10;;;23.50;74.20;;;;;;4976939;28;20030;-73
2022/08/26 07:05:31;;;;;;;2.95;0.73;;;23.60;73.60;;;;;;4978105;28;20469;-72
2022/08/26 07:07:56;;;;;;;3.38;0.82;;;23.70;73.20;;;;;;4976659;28;20042;-72
2022/08/26 07:10:23;;;;;;;4.25;1.05;;;23.80;73.10;;;;;;4976506;28;20884;-73
2022/08/26 07:12:50;;;;;;;5.28;0.93;;;24.00;72.50;;;;;;4978268;28;20053;-73
2022/08/26 07:15:16;;;;;;;4.25;0.88;;;24.10;71.60;;;;;;4974615;28;20029;-72
2022/08/26 07:17:41;;;;;;;4.07;0.80;;;24.30;71.80;;;;;;4974932;28;20026;-73
2022/08/26 07:20:08;;;;;;;3.08;1.00;;;24.50;71.60;;;;;;4975662;28;20026;-73
2022/08/26 07:22:35;;;;;;;4.35;0.90;;;24.60;71.30;;;;;;4974448;28;20026;-72
2022/08/26 07:25:08;;;;;;;4.65;0.68;;;24.70;71.20;;;;;;4976728;28;20032;-72
2022/08/26 07:27:36;;;;;;;6.07;0.93;;;24.80;71.40;;;;;;4976824;28;20027;-71
2022/08/26 07:30:04;;;;;;;6.25;1.40;;;25.00;70.90;;;;;;4976728;28;20143;-70
2022/08/26 07:32:31;;;;;;;5.20;1.20;;;25.10;68.50;;;;;;4979423;28;20476;-71
2022/08/26 07:34:57;;;;;;;4.40;1.20;;;25.10;68.20;;;;;;4975378;28;20018;-72
2022/08/26 07:37:23;;;;;;;3.50;1.10;;;25.10;67.40;;;;;;4974963;28;20035;-71
2022/08/26 07:39:49;;;;;;;6.47;1.95;;;25.10;67.70;;;;;;4977677;28;20034;-70
2022/08/26 07:42:16;;;;;;;4.55;1.23;;;25.10;66.80;;;;;;4974278;28;20392;-72
2022/08/26 07:44:44;;;;;;;3.40;1.08;;;25.00;66.10;;;;;;4975800;28;20030;-73
2022/08/26 07:47:10;;;;;;;6.55;1.40;;;25.00;67.10;;;;;;4974167;28;20042;-73
2022/08/26 07:49:37;;;;;;;5.10;1.30;;;25.00;67.10;;;;;;4979207;28;20041;-72
2022/08/26 07:52:04;;;;;;;5.15;1.35;;;25.00;67.50;;;;;;4976502;28;20344;-72
2022/08/26 07:54:30;;;;;;;4.88;1.02;;;25.10;67.40;;;;;;4978293;28;20092;-72
2022/08/26 07:56:58;;;;;;;5.65;1.50;;;25.20;67.40;;;;;;4976241;28;20018;-73
2022/08/26 07:59:24;;;;;;;4.32;1.02;;;25.30;66.60;;;;;;4975880;28;20493;-69
2022/08/26 08:01:50;;;;;;;7.18;1.55;;;25.50;67.00;;;;;;4974451;28;20038;-74
2022/08/26 08:04:17;;;;;;;4.35;0.93;;;25.60;66.90;;;;;;4976659;28;20030;-70
2022/08/26 08:06:44;;;;;;;5.85;1.10;;;25.70;67.30;;;;;;4974391;28;20854;-70
2022/08/26 08:09:11;;;;;;;5.95;1.40;;;25.80;67.20;;;;;;4978493;28;20042;-70
2022/08/26 08:11:36;;;;;;;3.70;0.88;;;25.80;65.00;;;;;;4977315;28;20038;-70
2022/08/26 08:14:02;;;;;;;4.75;0.90;;;25.60;65.40;;;;;;4973275;28;20733;-70
2022/08/26 08:16:28;;;;;;;8.75;1.58;;;25.40;64.90;;;;;;4978085;28;20023;-71
2022/08/26 08:18:55;;;;;;;4.80;1.10;;;25.30;65.60;;;;;;4974711;28;20027;-70
2022/08/26 08:21:23;;;;;;;5.00;1.38;;;25.20;66.20;;;;;;4978445;28;20081;-70
2022/08/26 08:23:50;;;;;;;8.05;1.25;;;25.20;66.70;;;;;;4977918;28;20441;-71
2022/08/26 08:26:17;;;;;;;6.95;1.27;;;25.10;67.90;;;;;;4977402;28;20105;-70
2022/08/26 08:28:45;;;;;;;5.90;1.67;;;25.00;66.20;;;;;;4974542;28;20038;-69
2022/08/26 08:31:28;;;;;;;7.68;1.50;;;24.90;66.30;;;;;;4976641;28;20026;-69
2022/08/26 08:33:54;;;;;;;9.52;2.42;;;24.90;67.30;;;;;;4965454;28;20023;-74
2022/08/26 08:36:21;;;;;;;6.57;1.23;;;24.80;69.00;;;;;;4974984;28;20029;-69
2022/08/26 08:38:47;;;;;;;6.70;1.13;;;24.70;69.80;;;;;;4973683;28;20092;-70
2022/08/26 08:41:36;;;;;;;5.90;1.15;;;24.50;69.30;;;;;;4974913;28;20034;-70
2022/08/26 08:44:08;;;;;;;5.15;1.45;;;24.40;69.90;;;;;;4971286;28;20026;-73
2022/08/26 08:46:34;;;;;;;3.42;0.75;;;24.30;70.80;;;;;;4976764;28;20042;-72
2022/08/26 08:49:02;;;;;;;11.20;1.48;;;24.30;70.90;;;;;;4960279;28;20118;-71
2022/08/26 08:51:44;;;;;;;5.60;1.17;;;24.20;70.30;;;;;;4974787;28;20019;-71
2022/08/26 08:54:10;;;;;;;6.00;1.00;;;24.00;71.10;;;;;;4975431;28;20085;-73
2022/08/26 08:56:41;;;;;;;4.55;0.98;;;24.00;70.40;;;;;;4975573;28;20038;-72
2022/08/26 08:59:17;;;;;;;7.45;1.27;;;24.00;69.80;;;;;;4977741;28;20309;-72
2022/08/26 09:02:01;;;;;;;5.65;1.20;;;24.00;70.00;;;;;;4975342;28;20833;-72
2022/08/26 09:04:46;;;;;;;4.70;1.00;;;24.00;70.00;;;;;;4975322;28;20015;-71
2022/08/26 09:07:23;;;;;;;4.40;1.25;;;24.10;70.00;;;;;;4979268;28;20031;-72
2022/08/26 09:10:02;;;;;;;5.90;1.58;;;24.10;69.90;;;;;;4974112;28;20030;-72
2022/08/26 09:12:31;;;;;;;4.25;0.68;;;24.20;70.40;;;;;;4978446;28;20058;-72
2022/08/26 09:15:05;;;;;;;9.05;1.33;;;24.20;69.00;;;;;;4977517;28;20049;-71
2022/08/26 09:17:53;;;;;;;8.68;1.10;;;24.20;68.60;;;;;;4979790;28;20543;-72
2022/08/26 09:20:27;;;;;;;5.38;0.82;;;24.30;69.30;;;;;;4979939;28;20809;-73
2022/08/26 09:22:55;;;;;;;6.68;1.30;;;24.30;68.70;;;;;;4980465;28;20027;-72
2022/08/26 09:25:21;;;;;;;5.90;1.42;;;24.30;68.90;;;;;;4977415;28;20023;-72
2022/08/26 09:27:49;;;;;;;3.40;0.88;;;24.30;69.80;;;;;;4982245;28;20041;-72
2022/08/26 09:30:30;;;;;;;7.43;1.38;;;24.30;69.30;;;;;;4977787;28;20061;-73
2022/08/26 09:33:04;;;;;;;4.35;0.93;;;24.40;69.20;;;;;;4976382;28;20027;-73
2022/08/26 09:35:32;;;;;;;6.45;1.20;;;24.30;67.80;;;;;;4978298;28;20477;-72
2022/08/26 09:37:59;;;;;;;7.72;1.52;;;24.40;68.70;;;;;;4979562;28;20030;-74
2022/08/26 09:40:35;;;;;;;3.17;0.75;;;24.40;70.60;;;;;;4979351;28;20022;-72
2022/08/26 09:43:18;;;;;;;3.20;1.05;;;24.20;69.50;;;;;;4978468;28;20060;-73
2022/08/26 09:45:47;;;;;;;6.13;1.33;;;24.30;68.60;;;;;;4975316;28;20054;-73
2022/08/26 09:48:35;;;;;;;5.38;1.15;;;24.40;70.30;;;;;;4977110;28;20057;-73
2022/08/26 09:51:21;;;;;;;6.22;1.23;;;24.40;70.80;;;;;;4976831;28;20090;-72
2022/08/26 09:53:53;;;;;;;6.63;1.20;;;24.50;70.20;;;;;;4979419;28;20043;-71
2022/08/26 09:56:28;;;;;;;7.30;1.48;;;24.40;70.40;;;;;;4965985;28;20157;-72
2022/08/26 09:58:55;;;;;;;5.53;1.23;;;24.30;69.60;;;;;;4977484;28;20563;-72
2022/08/26 10:01:30;;;;;;;4.55;1.25;;;24.40;67.80;;;;;;4979760;28;20033;-71
2022/08/26 10:04:18;;;;;;;5.47;1.15;;;24.50;67.80;;;;;;4977868;28;20453;-72
2022/08/26 10:07:03;;;;;;;8.57;1.40;;;24.50;66.90;;;;;;4979633;28;20446;-72
2022/08/26 10:09:39;;;;;;;5.40;0.90;;;24.50;67.90;;;;;;4977513;28;20109;-71
2022/08/26 10:12:11;;;;;;;6.97;1.45;;;24.50;66.80;;;;;;4978040;28;20034;-70
2022/08/26 10:14:43;;;;;;;5.55;1.25;;;24.30;68.90;;;;;;4975679;28;20046;-71
2022/08/26 10:17:32;;;;;;;6.75;1.58;;;24.20;68.30;;;;;;4978359;28;20027;-71
2022/08/26 10:20:09;;;;;;;7.45;1.50;;;24.00;69.50;;;;;;4978683;28;20485;-72
2022/08/26 10:22:46;;;;;;;6.45;1.30;;;24.00;69.10;;;;;;4980905;28;20034;-71
2022/08/26 10:25:17;;;;;;;7.15;1.52;;;24.10;68.60;;;;;;4978157;28;20031;-71
2022/08/26 10:27:53;;;;;;;5.53;1.00;;;24.10;68.10;;;;;;4978781;28;20029;-71
2022/08/26 10:30:22;;;;;;;5.43;1.23;;;24.10;68.30;;;;;;4959940;28;20044;-71
2022/08/26 10:32:53;;;;;;;4.72;1.20;;;24.20;68.10;;;;;;4978666;28;20035;-72
2022/08/26 10:35:19;;;;;;;5.93;1.10;;;24.30;67.20;;;;;;4960483;28;20480;-75
2022/08/26 10:37:52;;;;;;;7.30;1.30;;;24.40;66.30;;;;;;4957165;28;20031;-74
2022/08/26 10:40:21;;;;;;;5.35;1.23;;;24.50;68.60;;;;;;4978032;28;20050;-74
2022/08/26 10:42:56;;;;;;;6.53;1.38;;;24.50;66.80;;;;;;4976062;28;20015;-74
2022/08/26 10:45:28;;;;;;;8.27;1.30;;;24.50;67.20;;;;;;4966126;28;20096;-74
2022/08/26 10:48:00;;;;;;;7.20;1.77;;;24.50;67.60;;;;;;4957047;28;20055;-73
2022/08/26 10:50:38;;;;;;;6.07;1.05;;;24.50;67.50;;;;;;4958356;28;20037;-76
2022/08/26 10:53:12;;;;;;;8.48;1.30;;;24.50;67.30;;;;;;4976716;28;20101;-75
2022/08/26 10:55:53;;;;;;;4.75;1.00;;;24.50;68.40;;;;;;4979943;28;20109;-74
2022/08/26 10:58:39;;;;;;;6.82;1.20;;;24.50;67.70;;;;;;4978931;28;20033;-75
2022/08/26 11:01:44;;;;;;;4.55;1.10;;;24.60;68.50;;;;;;4956909;28;20071;-74
2022/08/26 11:04:24;;;;;;;6.38;1.17;;;24.60;66.70;;;;;;4975671;28;20106;-74
2022/08/26 11:07:31;;;;;;;6.97;1.15;;;24.40;68.80;;;;;;4981584;28;20035;-75
2022/08/26 11:10:07;;;;;;;6.55;1.17;;;24.30;69.30;;;;;;4978846;28;22954;-75
2022/08/26 11:12:36;;;;;;;3.75;0.90;;;24.30;69.90;;;;;;4978738;28;20027;-74
2022/08/26 11:15:05;;;;;;;5.47;0.82;;;24.20;69.30;;;;;;4960949;28;20030;-75
2022/08/26 11:17:43;;;;;;;6.47;1.25;;;24.20;69.40;;;;;;4978690;28;20026;-74
2022/08/26 11:20:33;;;;;;;5.95;1.25;;;24.20;67.60;;;;;;4975750;28;20029;-75
2022/08/26 11:23:19;;;;;;;;;;;24.20;69.30;;;;;;4967946;28;20042;-76
2022/08/26 11:25:59;;;;;;;5.47;0.95;;;24.20;69.70;;;;;;4961962;28;20427;-76
2022/08/26 11:28:44;;;;;;;5.93;1.02;;;24.20;67.90;;;;;;4972931;28;20038;-76
2022/08/26 11:31:33;;;;;;;2.05;0.60;;;24.20;67.50;;;;;;4957866;28;20122;-76
2022/08/26 11:34:01;;;;;;;4.05;1.00;;;24.20;70.10;;;;;;4965300;28;20472;-76
2022/08/26 11:36:47;;;;;;;5.07;0.90;;;24.20;66.30;;;;;;4975927;28;20030;-76
2022/08/26 11:39:47;;;;;;;8.10;1.88;;;24.20;70.30;;;;;;4959706;28;20101;-77
2022/08/26 11:42:39;;;;;;;5.32;0.70;;;24.20;70.80;;;;;;4976154;28;20033;-76
2022/08/26 11:45:36;;;;;;;4.55;1.00;;;24.10;68.30;;;;;;4957733;28;20129;-76
2022/08/26 11:48:32;;;;;;;7.25;0.98;;;24.10;67.20;;;;;;4968449;28;20093;-75
2022/08/26 11:51:02;;;;;;;4.50;0.90;;;24.10;67.60;;;;;;4977171;28;20031;-75
2022/08/26 11:53:31;;;;;;;;;;;24.10;69.10;;;;;;4974627;28;20665;-75
2022/08/26 11:55:59;;;;;;;3.92;1.25;;;24.00;69.60;;;;;;4972248;28;20004;-76
2022/08/26 11:58:27;;;;;;;7.90;1.00;;;23.90;67.90;;;;;;4975360;28;20034;-76
2022/08/26 12:01:04;;;;;;;4.20;1.77;;;23.90;69.70;;;;;;4972871;28;20658;-73
2022/08/26 12:03:44;;;;;;;7.20;1.05;;;23.90;67.60;;;;;;4978016;28;20165;-73
2022/08/26 12:06:15;;;;;;;3.20;0.90;;;23.80;68.30;;;;;;4973582;28;20100;-73
2022/08/26 12:08:43;;;;;;;4.97;0.82;;;23.70;68.70;;;;;;4979122;28;20038;-74
2022/08/26 12:11:21;;;;;;;4.32;1.15;;;23.70;69.80;;;;;;4973664;28;20026;-73
2022/08/26 12:14:03;;;;;;;5.93;1.40;;;23.70;70.20;;;;;;4978090;28;20109;-74
2022/08/26 12:16:32;;;;;;;3.33;0.85;;;23.70;68.90;;;;;;4973928;28;20411;-73
2022/08/26 12:18:58;;;;;;;4.85;1.33;;;23.80;69.40;;;;;;4971084;28;20113;-73
2022/08/26 12:21:28;;;;;;;6.85;1.10;;;23.80;70.10;;;;;;4974804;28;20041;-73
2022/08/26 12:23:57;;;;;;;;;;;23.90;69.60;;;;;;4958193;28;20026;-73
2022/08/26 12:26:33;;;;;;;6.53;0.98;;;23.90;69.60;;;;;;4974002;28;19933;-73
2022/08/26 12:29:03;;;;;;;3.58;1.10;;;23.80;70.00;;;;;;4975395;28;20046;-74
2022/08/26 12:31:33;;;;;;;;;;;23.80;69.00;;;;;;4975742;28;20033;-72
2022/08/26 12:34:01;;;;;;;5.15;0.90;;;23.90;69.10;;;;;;4974446;28;20312;-71
2022/08/26 12:36:37;;;;;;;4.95;1.00;;;23.90;70.10;;;;;;4975122;28;20443;-73
2022/08/26 12:39:07;;;;;;;6.95;1.15;;;23.90;69.60;;;;;;4978043;28;20124;-74
2022/08/26 12:41:41;;;;;;;3.65;0.60;;;23.90;69.50;;;;;;4973932;28;20034;-74
2022/08/26 12:44:07;;;;;;;2.42;0.60;;;24.00;68.50;;;;;;4973544;28;20088;-73
2022/08/26 12:46:33;;;;;;;3.50;0.80;;;24.10;68.60;;;;;;4978541;28;20054;-73
2022/08/26 12:49:02;;;;;;;3.13;1.10;;;24.20;68.50;;;;;;4973190;28;20066;-71
2022/08/26 12:51:30;;;;;;;4.47;1.02;;;24.40;67.00;;;;;;4974136;28;20455;-72
2022/08/26 12:53:58;;;;;;;5.82;0.80;;;24.60;67.10;;;;;;4975962;28;20096;-72
2022/08/26 12:56:31;;;;;;;8.77;0.70;;;24.70;66.50;;;;;;4972959;28;20035;-75
2022/08/26 12:59:06;;;;;;;7.63;1.45;;;24.90;65.70;;;;;;4975472;28;20023;-73
2022/08/26 13:01:39;;;;;;;7.30;1.00;;;24.90;65.60;;;;;;4975413;28;20369;-74
2022/08/26 13:04:05;;;;;;;5.15;0.82;;;24.90;65.20;;;;;;4973809;28;20485;-74